sensor_id;sensor_type;location;lat;lon;timestamp;P1;durP1;ratioP1;P2;durP2;ratioP2
10711;SDS011;5407;51.234;6.804;2022-12-10T00:01:24;5.95;;;4.93;;
10711;SDS011;5407;51.234;6.804;2022-12-10T00:03:51;5.47;;;4.97;;
10711;SDS011;5407;51.234;6.804;2022-12-10T00:06:19;5.55;;;5.05;;
10711;SDS011;5407;51.234;6.804;2022-12-10T00:08:48;5.25;;;4.82;;
10711;SDS011;5407;51.234;6.804;2022-12-10T00:11:16;5.35;;;4.90;;
10711;SDS011;5407;51.234;6.804;2022-12-10T00:13:44;5.55;;;5.05;;
10711;SDS011;5407;51.234;6.804;2022-12-10T00:16:13;5.22;;;4.72;;
10711;SDS011;5407;51.234;6.804;2022-12-10T00:18:43;5.40;;;4.90;;
10711;SDS011;5407;51.234;6.804;2022-12-10T00:21:11;5.60;;;5.10;;
10711;SDS011;5407;51.234;6.804;2022-12-10T00:23:39;5.35;;;4.85;;
10711;SDS011;5407;51.234;6.804;2022-12-10T00:26:07;5.47;;;4.97;;
10711;SDS011;5407;51.234;6.804;2022-12-10T00:28:36;5.60;;;5.10;;
10711;SDS011;5407;51.234;6.804;2022-12-10T00:31:03;5.47;;;5.03;;
10711;SDS011;5407;51.234;6.804;2022-12-10T00:33:31;5.63;;;5.10;;
10711;SDS011;5407;51.234;6.804;2022-12-10T00:36:02;5.47;;;4.97;;
10711;SDS011;5407;51.234;6.804;2022-12-10T00:38:30;5.88;;;5.28;;
10711;SDS011;5407;51.234;6.804;2022-12-10T00:40:57;5.97;;;5.47;;
10711;SDS011;5407;51.234;6.804;2022-12-10T00:43:25;5.38;;;4.90;;
10711;SDS011;5407;51.234;6.804;2022-12-10T00:45:53;5.60;;;5.10;;
10711;SDS011;5407;51.234;6.804;2022-12-10T00:48:20;5.60;;;5.10;;
10711;SDS011;5407;51.234;6.804;2022-12-10T00:50:54;5.40;;;4.90;;
10711;SDS011;5407;51.234;6.804;2022-12-10T00:53:23;5.75;;;5.25;;
10711;SDS011;5407;51.234;6.804;2022-12-10T00:55:51;5.70;;;5.20;;
10711;SDS011;5407;51.234;6.804;2022-12-10T00:58:18;5.35;;;4.85;;
10711;SDS011;5407;51.234;6.804;2022-12-10T01:00:44;5.65;;;5.15;;
10711;SDS011;5407;51.234;6.804;2022-12-10T01:03:11;5.70;;;5.20;;
10711;SDS011;5407;51.234;6.804;2022-12-10T01:05:38;5.07;;;4.68;;
10711;SDS011;5407;51.234;6.804;2022-12-10T01:08:05;5.53;;;5.03;;
10711;SDS011;5407;51.234;6.804;2022-12-10T01:10:34;5.63;;;5.13;;
10711;SDS011;5407;51.234;6.804;2022-12-10T01:13:01;6.03;;;5.45;;
10711;SDS011;5407;51.234;6.804;2022-12-10T01:15:28;6.72;;;5.30;;
10711;SDS011;5407;51.234;6.804;2022-12-10T01:17:55;4.90;;;4.50;;
10711;SDS011;5407;51.234;6.804;2022-12-10T01:20:22;5.45;;;4.95;;
10711;SDS011;5407;51.234;6.804;2022-12-10T01:22:49;7.47;;;5.28;;
10711;SDS011;5407;51.234;6.804;2022-12-10T01:25:16;6.22;;;5.40;;
10711;SDS011;5407;51.234;6.804;2022-12-10T01:27:44;5.65;;;5.13;;
10711;SDS011;5407;51.234;6.804;2022-12-10T01:30:11;5.88;;;5.28;;
10711;SDS011;5407;51.234;6.804;2022-12-10T01:32:38;6.57;;;5.18;;
10711;SDS011;5407;51.234;6.804;2022-12-10T01:35:06;5.75;;;5.25;;
10711;SDS011;5407;51.234;6.804;2022-12-10T01:37:33;8.68;;;5.47;;
10711;SDS011;5407;51.234;6.804;2022-12-10T01:40:00;6.25;;;5.15;;
10711;SDS011;5407;51.234;6.804;2022-12-10T01:42:27;10.05;;;4.90;;
10711;SDS011;5407;51.234;6.804;2022-12-10T01:47:40;7.10;;;5.20;;
10711;SDS011;5407;51.234;6.804;2022-12-10T01:50:07;5.90;;;4.95;;
10711;SDS011;5407;51.234;6.804;2022-12-10T01:52:36;5.55;;;5.03;;
10711;SDS011;5407;51.234;6.804;2022-12-10T01:55:06;6.03;;;5.43;;
10711;SDS011;5407;51.234;6.804;2022-12-10T01:57:55;5.75;;;5.25;;
10711;SDS011;5407;51.234;6.804;2022-12-10T02:00:23;5.72;;;5.22;;
10711;SDS011;5407;51.234;6.804;2022-12-10T02:02:51;5.57;;;5.07;;
10711;SDS011;5407;51.234;6.804;2022-12-10T02:05:25;5.38;;;4.90;;
10711;SDS011;5407;51.234;6.804;2022-12-10T02:08:02;5.55;;;5.05;;
10711;SDS011;5407;51.234;6.804;2022-12-10T02:10:40;5.32;;;4.93;;
10711;SDS011;5407;51.234;6.804;2022-12-10T02:13:14;5.75;;;5.25;;
10711;SDS011;5407;51.234;6.804;2022-12-10T02:15:47;5.88;;;5.38;;
10711;SDS011;5407;51.234;6.804;2022-12-10T02:18:19;5.53;;;5.03;;
10711;SDS011;5407;51.234;6.804;2022-12-10T02:20:50;5.60;;;5.10;;
10711;SDS011;5407;51.234;6.804;2022-12-10T02:23:22;5.95;;;5.43;;
10711;SDS011;5407;51.234;6.804;2022-12-10T02:25:53;6.10;;;5.60;;
10711;SDS011;5407;51.234;6.804;2022-12-10T02:28:35;6.68;;;5.55;;
10711;SDS011;5407;51.234;6.804;2022-12-10T02:31:09;5.50;;;5.00;;
10711;SDS011;5407;51.234;6.804;2022-12-10T02:33:41;5.57;;;5.07;;
10711;SDS011;5407;51.234;6.804;2022-12-10T02:36:12;5.53;;;5.03;;
10711;SDS011;5407;51.234;6.804;2022-12-10T02:38:41;6.50;;;5.00;;
10711;SDS011;5407;51.234;6.804;2022-12-10T02:41:12;5.38;;;4.88;;
10711;SDS011;5407;51.234;6.804;2022-12-10T02:43:43;5.75;;;5.22;;
10711;SDS011;5407;51.234;6.804;2022-12-10T02:46:13;5.78;;;5.20;;
10711;SDS011;5407;51.234;6.804;2022-12-10T02:48:41;5.43;;;4.93;;
10711;SDS011;5407;51.234;6.804;2022-12-10T02:51:09;5.28;;;4.78;;
10711;SDS011;5407;51.234;6.804;2022-12-10T02:53:40;6.00;;;5.18;;
10711;SDS011;5407;51.234;6.804;2022-12-10T02:56:12;5.57;;;5.05;;
10711;SDS011;5407;51.234;6.804;2022-12-10T02:58:49;5.43;;;4.93;;
10711;SDS011;5407;51.234;6.804;2022-12-10T03:01:31;5.68;;;5.03;;
10711;SDS011;5407;51.234;6.804;2022-12-10T03:04:09;5.70;;;5.20;;
10711;SDS011;5407;51.234;6.804;2022-12-10T03:06:41;5.35;;;4.85;;
10711;SDS011;5407;51.234;6.804;2022-12-10T03:09:12;5.50;;;5.05;;
10711;SDS011;5407;51.234;6.804;2022-12-10T03:11:43;5.63;;;5.10;;
10711;SDS011;5407;51.234;6.804;2022-12-10T03:14:13;5.13;;;4.72;;
10711;SDS011;5407;51.234;6.804;2022-12-10T03:16:45;5.40;;;4.93;;
10711;SDS011;5407;51.234;6.804;2022-12-10T03:19:17;4.70;;;4.30;;
10711;SDS011;5407;51.234;6.804;2022-12-10T03:21:47;5.28;;;4.80;;
10711;SDS011;5407;51.234;6.804;2022-12-10T03:24:17;5.65;;;5.15;;
10711;SDS011;5407;51.234;6.804;2022-12-10T03:26:45;5.70;;;5.20;;
10711;SDS011;5407;51.234;6.804;2022-12-10T03:29:15;5.63;;;5.07;;
10711;SDS011;5407;51.234;6.804;2022-12-10T03:31:47;5.85;;;5.30;;
10711;SDS011;5407;51.234;6.804;2022-12-10T03:34:14;5.57;;;5.07;;
10711;SDS011;5407;51.234;6.804;2022-12-10T03:36:41;5.82;;;5.22;;
10711;SDS011;5407;51.234;6.804;2022-12-10T03:39:08;5.57;;;5.07;;
10711;SDS011;5407;51.234;6.804;2022-12-10T03:41:35;5.55;;;5.05;;
10711;SDS011;5407;51.234;6.804;2022-12-10T03:44:02;6.70;;;6.10;;
10711;SDS011;5407;51.234;6.804;2022-12-10T03:46:30;5.82;;;5.22;;
10711;SDS011;5407;51.234;6.804;2022-12-10T03:48:59;5.70;;;5.20;;
10711;SDS011;5407;51.234;6.804;2022-12-10T03:51:27;6.03;;;5.45;;
10711;SDS011;5407;51.234;6.804;2022-12-10T03:53:54;5.80;;;5.30;;
10711;SDS011;5407;51.234;6.804;2022-12-10T03:56:21;5.72;;;5.13;;
10711;SDS011;5407;51.234;6.804;2022-12-10T03:58:48;5.90;;;5.40;;
10711;SDS011;5407;51.234;6.804;2022-12-10T04:01:15;6.22;;;5.55;;
10711;SDS011;5407;51.234;6.804;2022-12-10T04:03:43;6.18;;;5.57;;
10711;SDS011;5407;51.234;6.804;2022-12-10T04:06:13;5.97;;;5.38;;
10711;SDS011;5407;51.234;6.804;2022-12-10T04:08:42;5.75;;;5.25;;
10711;SDS011;5407;51.234;6.804;2022-12-10T04:11:10;5.72;;;5.22;;
10711;SDS011;5407;51.234;6.804;2022-12-10T04:13:38;6.05;;;5.45;;
10711;SDS011;5407;51.234;6.804;2022-12-10T04:16:23;6.18;;;5.63;;
10711;SDS011;5407;51.234;6.804;2022-12-10T04:18:54;6.10;;;5.50;;
10711;SDS011;5407;51.234;6.804;2022-12-10T04:21:24;6.32;;;5.72;;
10711;SDS011;5407;51.234;6.804;2022-12-10T04:24:08;6.55;;;5.95;;
10711;SDS011;5407;51.234;6.804;2022-12-10T04:26:53;6.93;;;6.15;;
10711;SDS011;5407;51.234;6.804;2022-12-10T04:29:21;5.88;;;5.35;;
10711;SDS011;5407;51.234;6.804;2022-12-10T04:31:49;6.10;;;5.60;;
10711;SDS011;5407;51.234;6.804;2022-12-10T04:34:16;6.50;;;5.97;;
10711;SDS011;5407;51.234;6.804;2022-12-10T04:36:44;6.45;;;5.85;;
10711;SDS011;5407;51.234;6.804;2022-12-10T04:39:11;6.05;;;5.55;;
10711;SDS011;5407;51.234;6.804;2022-12-10T04:41:39;6.90;;;6.20;;
10711;SDS011;5407;51.234;6.804;2022-12-10T04:44:07;6.57;;;5.97;;
10711;SDS011;5407;51.234;6.804;2022-12-10T04:46:34;6.45;;;5.75;;
10711;SDS011;5407;51.234;6.804;2022-12-10T04:49:01;7.15;;;6.45;;
10711;SDS011;5407;51.234;6.804;2022-12-10T04:51:29;6.63;;;6.03;;
10711;SDS011;5407;51.234;6.804;2022-12-10T04:53:57;6.70;;;6.10;;
10711;SDS011;5407;51.234;6.804;2022-12-10T04:56:25;6.43;;;5.82;;
10711;SDS011;5407;51.234;6.804;2022-12-10T04:58:52;6.20;;;5.70;;
10711;SDS011;5407;51.234;6.804;2022-12-10T05:01:21;6.70;;;6.10;;
10711;SDS011;5407;51.234;6.804;2022-12-10T05:03:48;6.68;;;6.07;;
10711;SDS011;5407;51.234;6.804;2022-12-10T05:06:15;6.95;;;6.25;;
10711;SDS011;5407;51.234;6.804;2022-12-10T05:08:43;6.47;;;5.88;;
10711;SDS011;5407;51.234;6.804;2022-12-10T05:11:12;7.10;;;6.40;;
10711;SDS011;5407;51.234;6.804;2022-12-10T05:13:41;7.07;;;6.38;;
10711;SDS011;5407;51.234;6.804;2022-12-10T05:16:11;6.85;;;6.15;;
10711;SDS011;5407;51.234;6.804;2022-12-10T05:18:39;7.13;;;5.72;;
10711;SDS011;5407;51.234;6.804;2022-12-10T05:21:07;6.72;;;6.13;;
10711;SDS011;5407;51.234;6.804;2022-12-10T05:23:36;7.32;;;6.63;;
10711;SDS011;5407;51.234;6.804;2022-12-10T05:26:03;6.70;;;6.10;;
10711;SDS011;5407;51.234;6.804;2022-12-10T05:28:34;7.25;;;6.60;;
10711;SDS011;5407;51.234;6.804;2022-12-10T05:31:02;6.80;;;6.20;;
10711;SDS011;5407;51.234;6.804;2022-12-10T05:33:30;8.13;;;6.53;;
10711;SDS011;5407;51.234;6.804;2022-12-10T05:35:58;6.90;;;6.30;;
10711;SDS011;5407;51.234;6.804;2022-12-10T05:38:26;6.72;;;6.03;;
10711;SDS011;5407;51.234;6.804;2022-12-10T05:40:55;6.68;;;6.07;;
10711;SDS011;5407;51.234;6.804;2022-12-10T05:43:27;6.95;;;6.35;;
10711;SDS011;5407;51.234;6.804;2022-12-10T05:45:59;6.82;;;6.15;;
10711;SDS011;5407;51.234;6.804;2022-12-10T05:48:26;6.50;;;5.90;;
10711;SDS011;5407;51.234;6.804;2022-12-10T05:50:53;6.90;;;6.20;;
10711;SDS011;5407;51.234;6.804;2022-12-10T05:53:20;7.40;;;6.15;;
10711;SDS011;5407;51.234;6.804;2022-12-10T05:55:48;6.90;;;6.20;;
10711;SDS011;5407;51.234;6.804;2022-12-10T05:58:14;6.88;;;6.18;;
10711;SDS011;5407;51.234;6.804;2022-12-10T06:00:41;7.15;;;6.45;;
10711;SDS011;5407;51.234;6.804;2022-12-10T06:03:10;7.00;;;6.25;;
10711;SDS011;5407;51.234;6.804;2022-12-10T06:05:37;7.28;;;6.57;;
10711;SDS011;5407;51.234;6.804;2022-12-10T06:08:04;7.35;;;6.65;;
10711;SDS011;5407;51.234;6.804;2022-12-10T06:10:33;6.85;;;6.20;;
10711;SDS011;5407;51.234;6.804;2022-12-10T06:13:00;6.50;;;5.90;;
10711;SDS011;5407;51.234;6.804;2022-12-10T06:15:27;6.88;;;6.15;;
10711;SDS011;5407;51.234;6.804;2022-12-10T06:17:54;7.05;;;5.95;;
10711;SDS011;5407;51.234;6.804;2022-12-10T06:20:22;7.18;;;6.10;;
10711;SDS011;5407;51.234;6.804;2022-12-10T06:22:49;7.03;;;6.32;;
10711;SDS011;5407;51.234;6.804;2022-12-10T06:25:16;6.93;;;6.22;;
10711;SDS011;5407;51.234;6.804;2022-12-10T06:27:44;7.07;;;6.38;;
10711;SDS011;5407;51.234;6.804;2022-12-10T06:30:11;6.95;;;6.32;;
10711;SDS011;5407;51.234;6.804;2022-12-10T06:32:38;6.85;;;6.15;;
10711;SDS011;5407;51.234;6.804;2022-12-10T06:35:08;7.20;;;6.50;;
10711;SDS011;5407;51.234;6.804;2022-12-10T06:37:37;7.38;;;6.68;;
10711;SDS011;5407;51.234;6.804;2022-12-10T06:40:04;8.82;;;5.97;;
10711;SDS011;5407;51.234;6.804;2022-12-10T06:42:32;7.60;;;6.35;;
10711;SDS011;5407;51.234;6.804;2022-12-10T06:44:59;6.95;;;6.25;;
10711;SDS011;5407;51.234;6.804;2022-12-10T06:47:25;8.65;;;6.15;;
10711;SDS011;5407;51.234;6.804;2022-12-10T06:49:52;7.03;;;6.40;;
10711;SDS011;5407;51.234;6.804;2022-12-10T06:52:19;7.30;;;6.60;;
10711;SDS011;5407;51.234;6.804;2022-12-10T06:54:47;8.52;;;7.25;;
10711;SDS011;5407;51.234;6.804;2022-12-10T06:57:14;8.95;;;7.88;;
10711;SDS011;5407;51.234;6.804;2022-12-10T06:59:41;7.32;;;6.63;;
10711;SDS011;5407;51.234;6.804;2022-12-10T07:02:08;10.13;;;7.63;;
10711;SDS011;5407;51.234;6.804;2022-12-10T07:04:35;8.30;;;7.38;;
10711;SDS011;5407;51.234;6.804;2022-12-10T07:07:02;9.00;;;7.78;;
10711;SDS011;5407;51.234;6.804;2022-12-10T07:09:29;8.10;;;7.30;;
10711;SDS011;5407;51.234;6.804;2022-12-10T07:11:58;8.52;;;7.72;;
10711;SDS011;5407;51.234;6.804;2022-12-10T07:14:25;8.85;;;7.72;;
10711;SDS011;5407;51.234;6.804;2022-12-10T07:16:53;9.20;;;7.55;;
10711;SDS011;5407;51.234;6.804;2022-12-10T07:19:20;8.93;;;8.02;;
10711;SDS011;5407;51.234;6.804;2022-12-10T07:21:47;9.35;;;8.40;;
10711;SDS011;5407;51.234;6.804;2022-12-10T07:24:15;8.80;;;7.93;;
10711;SDS011;5407;51.234;6.804;2022-12-10T07:26:44;9.20;;;8.30;;
10711;SDS011;5407;51.234;6.804;2022-12-10T07:29:14;9.27;;;8.30;;
10711;SDS011;5407;51.234;6.804;2022-12-10T07:31:42;8.60;;;7.80;;
10711;SDS011;5407;51.234;6.804;2022-12-10T07:34:10;9.68;;;7.80;;
10711;SDS011;5407;51.234;6.804;2022-12-10T07:36:37;9.52;;;8.07;;
10711;SDS011;5407;51.234;6.804;2022-12-10T07:39:04;14.18;;;10.00;;
10711;SDS011;5407;51.234;6.804;2022-12-10T07:41:31;16.77;;;10.25;;
10711;SDS011;5407;51.234;6.804;2022-12-10T07:44:00;13.82;;;10.50;;
10711;SDS011;5407;51.234;6.804;2022-12-10T07:46:28;13.90;;;10.20;;
10711;SDS011;5407;51.234;6.804;2022-12-10T07:48:59;13.18;;;10.63;;
10711;SDS011;5407;51.234;6.804;2022-12-10T07:51:26;12.38;;;9.98;;
10711;SDS011;5407;51.234;6.804;2022-12-10T07:53:53;12.70;;;10.63;;
10711;SDS011;5407;51.234;6.804;2022-12-10T07:56:20;13.88;;;10.52;;
10711;SDS011;5407;51.234;6.804;2022-12-10T07:58:48;22.73;;;11.10;;
10711;SDS011;5407;51.234;6.804;2022-12-10T08:01:16;12.70;;;10.13;;
10711;SDS011;5407;51.234;6.804;2022-12-10T08:03:46;20.98;;;10.23;;
10711;SDS011;5407;51.234;6.804;2022-12-10T08:06:13;15.57;;;9.95;;
10711;SDS011;5407;51.234;6.804;2022-12-10T08:08:42;11.25;;;10.05;;
10711;SDS011;5407;51.234;6.804;2022-12-10T08:11:10;12.25;;;10.38;;
10711;SDS011;5407;51.234;6.804;2022-12-10T08:13:38;12.30;;;10.40;;
10711;SDS011;5407;51.234;6.804;2022-12-10T08:16:06;12.13;;;9.85;;
10711;SDS011;5407;51.234;6.804;2022-12-10T08:18:34;12.55;;;10.88;;
10711;SDS011;5407;51.234;6.804;2022-12-10T08:21:04;12.48;;;10.52;;
10711;SDS011;5407;51.234;6.804;2022-12-10T08:23:32;13.48;;;10.38;;
10711;SDS011;5407;51.234;6.804;2022-12-10T08:26:02;13.38;;;10.27;;
10711;SDS011;5407;51.234;6.804;2022-12-10T08:28:29;11.02;;;9.85;;
10711;SDS011;5407;51.234;6.804;2022-12-10T08:30:56;12.43;;;9.80;;
10711;SDS011;5407;51.234;6.804;2022-12-10T08:33:23;12.65;;;10.00;;
10711;SDS011;5407;51.234;6.804;2022-12-10T08:35:50;12.23;;;9.95;;
10711;SDS011;5407;51.234;6.804;2022-12-10T08:38:18;10.88;;;9.77;;
10711;SDS011;5407;51.234;6.804;2022-12-10T08:40:45;12.55;;;9.65;;
10711;SDS011;5407;51.234;6.804;2022-12-10T08:43:12;9.68;;;8.68;;
10711;SDS011;5407;51.234;6.804;2022-12-10T08:45:38;10.45;;;9.35;;
10711;SDS011;5407;51.234;6.804;2022-12-10T08:48:05;10.43;;;9.30;;
10711;SDS011;5407;51.234;6.804;2022-12-10T08:50:32;10.43;;;9.13;;
10711;SDS011;5407;51.234;6.804;2022-12-10T08:52:59;9.77;;;8.80;;
10711;SDS011;5407;51.234;6.804;2022-12-10T08:55:27;12.23;;;8.98;;
10711;SDS011;5407;51.234;6.804;2022-12-10T08:57:55;12.45;;;8.82;;
10711;SDS011;5407;51.234;6.804;2022-12-10T09:00:22;11.75;;;9.40;;
10711;SDS011;5407;51.234;6.804;2022-12-10T09:02:49;10.95;;;9.05;;
10711;SDS011;5407;51.234;6.804;2022-12-10T09:05:16;13.18;;;9.32;;
10711;SDS011;5407;51.234;6.804;2022-12-10T09:07:43;15.20;;;8.27;;
10711;SDS011;5407;51.234;6.804;2022-12-10T09:10:10;9.95;;;8.90;;
10711;SDS011;5407;51.234;6.804;2022-12-10T09:12:39;10.07;;;8.52;;
10711;SDS011;5407;51.234;6.804;2022-12-10T09:15:07;9.35;;;8.35;;
10711;SDS011;5407;51.234;6.804;2022-12-10T09:17:36;9.65;;;8.55;;
10711;SDS011;5407;51.234;6.804;2022-12-10T09:20:03;9.77;;;8.77;;
10711;SDS011;5407;51.234;6.804;2022-12-10T09:22:31;11.05;;;8.85;;
10711;SDS011;5407;51.234;6.804;2022-12-10T09:25:02;10.68;;;8.80;;
10711;SDS011;5407;51.234;6.804;2022-12-10T09:27:29;10.25;;;9.10;;
10711;SDS011;5407;51.234;6.804;2022-12-10T09:29:58;12.38;;;9.85;;
10711;SDS011;5407;51.234;6.804;2022-12-10T09:32:25;9.10;;;8.20;;
10711;SDS011;5407;51.234;6.804;2022-12-10T09:34:52;11.05;;;8.88;;
10711;SDS011;5407;51.234;6.804;2022-12-10T09:37:19;9.85;;;8.85;;
10711;SDS011;5407;51.234;6.804;2022-12-10T09:39:46;11.10;;;9.00;;
10711;SDS011;5407;51.234;6.804;2022-12-10T09:42:16;9.15;;;8.25;;
10711;SDS011;5407;51.234;6.804;2022-12-10T09:44:52;9.45;;;8.52;;
10711;SDS011;5407;51.234;6.804;2022-12-10T09:47:29;9.32;;;8.43;;
10711;SDS011;5407;51.234;6.804;2022-12-10T09:50:02;9.48;;;8.40;;
10711;SDS011;5407;51.234;6.804;2022-12-10T09:52:39;9.90;;;8.90;;
10711;SDS011;5407;51.234;6.804;2022-12-10T09:55:11;9.77;;;8.70;;
10711;SDS011;5407;51.234;6.804;2022-12-10T09:57:41;9.45;;;8.27;;
10711;SDS011;5407;51.234;6.804;2022-12-10T10:00:18;10.23;;;8.45;;
10711;SDS011;5407;51.234;6.804;2022-12-10T10:02:48;9.18;;;7.95;;
10711;SDS011;5407;51.234;6.804;2022-12-10T10:05:18;9.18;;;8.05;;
10711;SDS011;5407;51.234;6.804;2022-12-10T10:07:48;9.90;;;8.63;;
10711;SDS011;5407;51.234;6.804;2022-12-10T10:10:23;9.52;;;8.52;;
10711;SDS011;5407;51.234;6.804;2022-12-10T10:12:53;10.63;;;8.27;;
10711;SDS011;5407;51.234;6.804;2022-12-10T10:15:24;9.10;;;8.18;;
10711;SDS011;5407;51.234;6.804;2022-12-10T10:17:55;9.32;;;8.38;;
10711;SDS011;5407;51.234;6.804;2022-12-10T10:20:25;8.93;;;8.02;;
10711;SDS011;5407;51.234;6.804;2022-12-10T10:22:52;9.30;;;8.32;;
10711;SDS011;5407;51.234;6.804;2022-12-10T10:25:22;8.77;;;7.88;;
10711;SDS011;5407;51.234;6.804;2022-12-10T10:27:49;8.57;;;7.68;;
10711;SDS011;5407;51.234;6.804;2022-12-10T10:30:17;8.93;;;8.02;;
10711;SDS011;5407;51.234;6.804;2022-12-10T10:32:48;9.57;;;8.27;;
10711;SDS011;5407;51.234;6.804;2022-12-10T10:35:24;8.77;;;7.88;;
10711;SDS011;5407;51.234;6.804;2022-12-10T10:37:59;9.05;;;7.90;;
10711;SDS011;5407;51.234;6.804;2022-12-10T10:40:27;8.30;;;7.50;;
10711;SDS011;5407;51.234;6.804;2022-12-10T10:42:57;8.82;;;7.97;;
10711;SDS011;5407;51.234;6.804;2022-12-10T10:45:37;8.20;;;7.38;;
10711;SDS011;5407;51.234;6.804;2022-12-10T10:48:10;8.60;;;7.47;;
10711;SDS011;5407;51.234;6.804;2022-12-10T10:50:41;8.48;;;7.57;;
10711;SDS011;5407;51.234;6.804;2022-12-10T10:53:26;8.38;;;7.53;;
10711;SDS011;5407;51.234;6.804;2022-12-10T10:55:56;8.68;;;7.68;;
10711;SDS011;5407;51.234;6.804;2022-12-10T10:58:25;8.35;;;7.55;;
10711;SDS011;5407;51.234;6.804;2022-12-10T11:00:54;8.20;;;7.40;;
10711;SDS011;5407;51.234;6.804;2022-12-10T11:03:24;8.20;;;7.30;;
10711;SDS011;5407;51.234;6.804;2022-12-10T11:05:52;8.13;;;7.25;;
10711;SDS011;5407;51.234;6.804;2022-12-10T11:08:20;7.68;;;6.88;;
10711;SDS011;5407;51.234;6.804;2022-12-10T11:10:50;7.63;;;6.93;;
10711;SDS011;5407;51.234;6.804;2022-12-10T11:13:23;7.78;;;7.07;;
10711;SDS011;5407;51.234;6.804;2022-12-10T11:15:55;8.15;;;7.28;;
10711;SDS011;5407;51.234;6.804;2022-12-10T11:18:29;7.47;;;6.78;;
10711;SDS011;5407;51.234;6.804;2022-12-10T11:21:03;7.38;;;6.50;;
10711;SDS011;5407;51.234;6.804;2022-12-10T11:23:35;7.05;;;6.38;;
10711;SDS011;5407;51.234;6.804;2022-12-10T11:26:11;7.13;;;6.43;;
10711;SDS011;5407;51.234;6.804;2022-12-10T11:28:52;7.13;;;6.18;;
10711;SDS011;5407;51.234;6.804;2022-12-10T11:31:33;7.70;;;6.90;;
10711;SDS011;5407;51.234;6.804;2022-12-10T11:34:12;7.55;;;6.82;;
10711;SDS011;5407;51.234;6.804;2022-12-10T11:36:47;6.45;;;5.72;;
10711;SDS011;5407;51.234;6.804;2022-12-10T11:39:34;6.80;;;6.10;;
10711;SDS011;5407;51.234;6.804;2022-12-10T11:42:14;7.03;;;6.32;;
10711;SDS011;5407;51.234;6.804;2022-12-10T11:44:54;6.97;;;6.28;;
10711;SDS011;5407;51.234;6.804;2022-12-10T11:47:39;7.40;;;6.63;;
10711;SDS011;5407;51.234;6.804;2022-12-10T11:50:22;6.63;;;6.03;;
10711;SDS011;5407;51.234;6.804;2022-12-10T11:52:56;6.68;;;6.07;;
10711;SDS011;5407;51.234;6.804;2022-12-10T11:55:36;6.38;;;5.78;;
10711;SDS011;5407;51.234;6.804;2022-12-10T11:58:15;7.20;;;6.50;;
10711;SDS011;5407;51.234;6.804;2022-12-10T12:00:56;6.93;;;6.30;;
10711;SDS011;5407;51.234;6.804;2022-12-10T12:03:31;8.85;;;6.47;;
10711;SDS011;5407;51.234;6.804;2022-12-10T12:06:17;6.53;;;5.88;;
10711;SDS011;5407;51.234;6.804;2022-12-10T12:08:53;10.25;;;6.15;;
10711;SDS011;5407;51.234;6.804;2022-12-10T12:11:29;9.38;;;6.45;;
10711;SDS011;5407;51.234;6.804;2022-12-10T12:14:11;10.10;;;6.65;;
10711;SDS011;5407;51.234;6.804;2022-12-10T12:16:44;8.93;;;6.50;;
10711;SDS011;5407;51.234;6.804;2022-12-10T12:19:17;7.47;;;6.40;;
10711;SDS011;5407;51.234;6.804;2022-12-10T12:21:51;8.65;;;6.05;;
10711;SDS011;5407;51.234;6.804;2022-12-10T12:24:19;7.15;;;6.07;;
10711;SDS011;5407;51.234;6.804;2022-12-10T12:26:49;6.75;;;6.13;;
10711;SDS011;5407;51.234;6.804;2022-12-10T12:29:20;6.78;;;6.07;;
10711;SDS011;5407;51.234;6.804;2022-12-10T12:31:54;7.63;;;6.82;;
10711;SDS011;5407;51.234;6.804;2022-12-10T12:34:24;7.32;;;6.10;;
10711;SDS011;5407;51.234;6.804;2022-12-10T12:36:56;6.53;;;5.80;;
10711;SDS011;5407;51.234;6.804;2022-12-10T12:39:26;6.45;;;5.85;;
10711;SDS011;5407;51.234;6.804;2022-12-10T12:41:59;6.80;;;6.10;;
10711;SDS011;5407;51.234;6.804;2022-12-10T12:44:34;6.45;;;5.80;;
10711;SDS011;5407;51.234;6.804;2022-12-10T12:47:13;7.75;;;5.78;;
10711;SDS011;5407;51.234;6.804;2022-12-10T12:49:50;6.28;;;5.68;;
10711;SDS011;5407;51.234;6.804;2022-12-10T12:52:23;6.72;;;5.63;;
10711;SDS011;5407;51.234;6.804;2022-12-10T12:54:57;8.43;;;6.40;;
10711;SDS011;5407;51.234;6.804;2022-12-10T12:57:29;5.93;;;5.40;;
10711;SDS011;5407;51.234;6.804;2022-12-10T13:00:03;7.38;;;5.93;;
10711;SDS011;5407;51.234;6.804;2022-12-10T13:02:43;7.28;;;6.40;;
10711;SDS011;5407;51.234;6.804;2022-12-10T13:05:18;6.30;;;5.70;;
10711;SDS011;5407;51.234;6.804;2022-12-10T13:10:56;7.32;;;6.03;;
10711;SDS011;5407;51.234;6.804;2022-12-10T13:13:29;6.18;;;5.55;;
10711;SDS011;5407;51.234;6.804;2022-12-10T13:21:56;6.15;;;5.55;;
10711;SDS011;5407;51.234;6.804;2022-12-10T13:27:16;7.82;;;5.35;;
10711;SDS011;5407;51.234;6.804;2022-12-10T13:29:46;5.75;;;5.13;;
10711;SDS011;5407;51.234;6.804;2022-12-10T13:32:21;6.13;;;5.60;;
10711;SDS011;5407;51.234;6.804;2022-12-10T13:35:15;6.07;;;5.45;;
10711;SDS011;5407;51.234;6.804;2022-12-10T13:37:53;6.60;;;6.00;;
10711;SDS011;5407;51.234;6.804;2022-12-10T13:40:24;6.00;;;5.50;;
10711;SDS011;5407;51.234;6.804;2022-12-10T13:42:56;6.13;;;5.50;;
10711;SDS011;5407;51.234;6.804;2022-12-10T13:45:42;6.68;;;6.07;;
10711;SDS011;5407;51.234;6.804;2022-12-10T13:51:10;6.53;;;5.88;;
10711;SDS011;5407;51.234;6.804;2022-12-10T13:53:47;6.55;;;5.85;;
10711;SDS011;5407;51.234;6.804;2022-12-10T13:56:28;5.82;;;5.25;;
10711;SDS011;5407;51.234;6.804;2022-12-10T13:58:59;5.88;;;5.28;;
10711;SDS011;5407;51.234;6.804;2022-12-10T14:01:38;6.38;;;5.78;;
10711;SDS011;5407;51.234;6.804;2022-12-10T14:04:17;6.15;;;5.43;;
10711;SDS011;5407;51.234;6.804;2022-12-10T14:06:57;6.43;;;5.82;;
10711;SDS011;5407;51.234;6.804;2022-12-10T14:09:25;7.28;;;5.43;;
10711;SDS011;5407;51.234;6.804;2022-12-10T14:11:59;5.95;;;5.45;;
10711;SDS011;5407;51.234;6.804;2022-12-10T14:14:30;6.60;;;5.50;;
10711;SDS011;5407;51.234;6.804;2022-12-10T14:17:01;5.57;;;5.07;;
10711;SDS011;5407;51.234;6.804;2022-12-10T14:19:30;6.53;;;5.18;;
10711;SDS011;5407;51.234;6.804;2022-12-10T14:22:00;6.20;;;5.70;;
10711;SDS011;5407;51.234;6.804;2022-12-10T14:24:33;6.63;;;5.22;;
10711;SDS011;5407;51.234;6.804;2022-12-10T14:27:12;5.55;;;5.05;;
10711;SDS011;5407;51.234;6.804;2022-12-10T14:29:43;6.05;;;5.45;;
10711;SDS011;5407;51.234;6.804;2022-12-10T14:32:12;6.25;;;5.53;;
10711;SDS011;5407;51.234;6.804;2022-12-10T14:34:40;6.18;;;5.45;;
10711;SDS011;5407;51.234;6.804;2022-12-10T14:37:08;5.80;;;5.30;;
10711;SDS011;5407;51.234;6.804;2022-12-10T14:39:40;6.57;;;5.90;;
10711;SDS011;5407;51.234;6.804;2022-12-10T14:42:12;6.55;;;5.95;;
10711;SDS011;5407;51.234;6.804;2022-12-10T14:44:42;6.20;;;5.60;;
10711;SDS011;5407;51.234;6.804;2022-12-10T14:47:12;5.85;;;5.25;;
10711;SDS011;5407;51.234;6.804;2022-12-10T14:49:42;7.13;;;5.93;;
10711;SDS011;5407;51.234;6.804;2022-12-10T14:52:11;6.60;;;6.00;;
10711;SDS011;5407;51.234;6.804;2022-12-10T14:54:40;6.30;;;5.68;;
10711;SDS011;5407;51.234;6.804;2022-12-10T14:57:08;6.30;;;5.70;;
10711;SDS011;5407;51.234;6.804;2022-12-10T14:59:43;6.10;;;5.60;;
10711;SDS011;5407;51.234;6.804;2022-12-10T15:02:15;6.53;;;5.90;;
10711;SDS011;5407;51.234;6.804;2022-12-10T15:04:47;6.90;;;6.13;;
10711;SDS011;5407;51.234;6.804;2022-12-10T15:07:17;5.82;;;5.32;;
10711;SDS011;5407;51.234;6.804;2022-12-10T15:09:46;6.05;;;5.45;;
10711;SDS011;5407;51.234;6.804;2022-12-10T15:12:21;6.03;;;5.25;;
10711;SDS011;5407;51.234;6.804;2022-12-10T15:14:55;10.82;;;6.07;;
10711;SDS011;5407;51.234;6.804;2022-12-10T15:17:33;7.68;;;5.78;;
10711;SDS011;5407;51.234;6.804;2022-12-10T15:20:03;7.13;;;5.97;;
10711;SDS011;5407;51.234;6.804;2022-12-10T15:22:44;7.57;;;5.82;;
10711;SDS011;5407;51.234;6.804;2022-12-10T15:25:13;7.25;;;6.55;;
10711;SDS011;5407;51.234;6.804;2022-12-10T15:27:53;7.10;;;6.10;;
10711;SDS011;5407;51.234;6.804;2022-12-10T15:30:28;6.85;;;5.93;;
10711;SDS011;5407;51.234;6.804;2022-12-10T15:33:00;6.85;;;6.25;;
10711;SDS011;5407;51.234;6.804;2022-12-10T15:35:27;16.13;;;5.90;;